createdAt,value
2022-08-27T00:02:27.660Z,8.60
2022-08-27T00:05:57.926Z,8.80
2022-08-27T00:09:26.744Z,8.27
2022-08-27T00:12:56.967Z,8.45
2022-08-27T00:16:24.694Z,8.50
2022-08-27T00:19:50.638Z,8.00
2022-08-27T00:23:17.122Z,8.18
2022-08-27T00:26:45.782Z,7.55
2022-08-27T00:30:14.726Z,8.23
2022-08-27T00:33:41.779Z,8.10
2022-08-27T00:37:08.364Z,8.52
2022-08-27T00:40:34.748Z,8.57
2022-08-27T00:44:01.253Z,8.30
2022-08-27T00:47:45.286Z,8.30
2022-08-27T00:51:13.364Z,8.98
2022-08-27T00:54:39.816Z,8.45
2022-08-27T00:58:05.826Z,8.85
2022-08-27T01:01:35.807Z,8.50
2022-08-27T01:05:07.227Z,7.63
2022-08-27T01:08:38.839Z,7.85
2022-08-27T01:12:05.417Z,9.48
2022-08-27T01:19:01.104Z,10.27
2022-08-27T01:22:53.569Z,8.60
2022-08-27T01:26:20.819Z,8.10
2022-08-27T01:33:19.354Z,8.20
2022-08-27T01:36:46.437Z,8.13
2022-08-27T01:40:13.452Z,9.00
2022-08-27T01:43:42.108Z,8.20
2022-08-27T01:47:08.000Z,8.68
2022-08-27T01:50:36.948Z,8.15
2022-08-27T01:54:04.257Z,9.07
2022-08-27T02:00:58.221Z,8.65
2022-08-27T02:04:24.650Z,9.10
2022-08-27T02:07:50.714Z,7.97
2022-08-27T02:11:18.987Z,8.35
2022-08-27T02:14:44.852Z,8.50
2022-08-27T02:18:11.741Z,8.38
2022-08-27T02:21:38.988Z,8.43
2022-08-27T02:25:07.312Z,8.00
2022-08-27T02:28:36.463Z,8.82
2022-08-27T02:32:02.671Z,7.65
2022-08-27T02:35:30.672Z,8.07
2022-08-27T02:38:57.109Z,8.40
2022-08-27T02:42:23.021Z,8.43
2022-08-27T02:45:49.156Z,8.75
2022-08-27T02:49:15.648Z,7.90
2022-08-27T02:52:42.274Z,8.73
2022-08-27T02:56:08.513Z,8.02
2022-08-27T02:59:34.441Z,8.10
2022-08-27T03:03:01.826Z,7.80
2022-08-27T03:09:53.584Z,8.20
2022-08-27T03:13:19.674Z,8.30
2022-08-27T03:16:45.471Z,8.32
2022-08-27T03:20:12.518Z,7.90
2022-08-27T03:23:38.396Z,7.80
2022-08-27T03:27:09.229Z,7.82
2022-08-27T03:30:35.442Z,8.60
2022-08-27T03:34:03.294Z,7.95
2022-08-27T03:37:30.001Z,8.48
2022-08-27T03:40:56.176Z,7.70
2022-08-27T03:44:23.072Z,7.47
2022-08-27T03:47:51.039Z,8.73
2022-08-27T03:51:17.060Z,7.53
2022-08-27T03:54:43.817Z,7.80
2022-08-27T03:58:11.233Z,8.07
2022-08-27T04:01:40.337Z,7.78
2022-08-27T04:05:06.723Z,8.13
2022-08-27T04:08:33.444Z,7.50
2022-08-27T04:11:59.371Z,8.27
2022-08-27T04:15:25.225Z,8.50
2022-08-27T04:18:51.143Z,8.18
2022-08-27T04:22:17.076Z,7.40
2022-08-27T04:25:43.533Z,8.35
2022-08-27T04:29:11.003Z,7.40
2022-08-27T04:32:37.275Z,7.73
2022-08-27T04:36:05.709Z,8.20
2022-08-27T04:39:32.000Z,7.95
2022-08-27T04:42:58.678Z,7.93
2022-08-27T04:46:26.564Z,8.27
2022-08-27T04:49:52.747Z,7.55
2022-08-27T04:56:51.839Z,8.80
2022-08-27T05:00:17.740Z,7.53
2022-08-27T05:03:43.775Z,8.05
2022-08-27T05:07:10.672Z,7.22
2022-08-27T05:10:42.065Z,6.57
2022-08-27T05:14:09.580Z,7.18
2022-08-27T05:17:35.565Z,6.80
2022-08-27T05:21:01.705Z,7.07
2022-08-27T05:24:27.622Z,7.28
2022-08-27T05:27:53.744Z,6.30
2022-08-27T05:31:20.583Z,7.10
2022-08-27T05:34:46.540Z,6.53
2022-08-27T05:38:13.037Z,7.47
2022-08-27T05:41:39.820Z,7.32
2022-08-27T05:45:10.106Z,6.97
2022-08-27T05:48:43.890Z,7.00
2022-08-27T05:52:14.227Z,6.05
2022-08-27T05:55:41.518Z,6.85
2022-08-27T06:02:54.105Z,6.53
2022-08-27T06:06:20.478Z,7.40
2022-08-27T06:09:46.375Z,7.60
2022-08-27T06:13:12.162Z,7.10
2022-08-27T06:16:39.089Z,7.55
2022-08-27T06:20:06.067Z,7.05
2022-08-27T06:23:34.444Z,8.38
2022-08-27T06:27:01.156Z,7.57
2022-08-27T06:30:27.182Z,7.72
2022-08-27T06:33:58.867Z,7.80
2022-08-27T06:37:31.187Z,7.20
2022-08-27T06:40:57.529Z,8.02
2022-08-27T06:44:27.515Z,7.43
2022-08-27T06:47:53.440Z,7.13
2022-08-27T06:51:21.692Z,7.68
2022-08-27T06:54:47.891Z,7.47
2022-08-27T06:58:14.423Z,7.07
2022-08-27T07:01:42.068Z,8.13
2022-08-27T07:05:12.753Z,7.47
2022-08-27T07:08:39.847Z,7.40
2022-08-27T07:12:09.995Z,7.65
2022-08-27T07:15:40.811Z,8.48
2022-08-27T07:19:07.167Z,7.28
2022-08-27T07:22:34.033Z,7.90
2022-08-27T07:26:00.285Z,8.48
2022-08-27T07:29:29.263Z,8.80
2022-08-27T07:32:58.127Z,8.93
2022-08-27T07:36:26.109Z,8.93
2022-08-27T07:39:52.029Z,7.82
2022-08-27T07:43:36.756Z,7.82
2022-08-27T07:47:06.247Z,8.02
2022-08-27T07:50:33.896Z,8.45
2022-08-27T07:54:00.077Z,8.45
2022-08-27T07:57:26.260Z,7.87
2022-08-27T08:00:52.166Z,7.65
2022-08-27T08:04:20.260Z,8.02
2022-08-27T08:07:46.807Z,8.35
2022-08-27T08:11:13.850Z,7.63
2022-08-27T08:14:40.398Z,7.53
2022-08-27T08:18:06.347Z,7.10
2022-08-27T08:21:32.419Z,6.88
2022-08-27T08:25:00.508Z,7.53
2022-08-27T08:28:27.783Z,7.05
2022-08-27T08:31:54.182Z,6.78
2022-08-27T08:35:20.318Z,6.22
2022-08-27T08:38:47.640Z,6.65
2022-08-27T08:42:35.188Z,23.65
2022-08-27T08:49:45.025Z,6.30
2022-08-27T08:53:55.142Z,9.52
2022-08-27T08:57:34.998Z,7.03
2022-08-27T09:01:08.895Z,7.25
2022-08-27T09:04:37.309Z,7.30
2022-08-27T09:08:30.915Z,6.55
2022-08-27T09:12:15.560Z,6.90
2022-08-27T09:16:03.930Z,6.43
2022-08-27T09:19:30.434Z,5.85
2022-08-27T09:23:10.551Z,5.78
2022-08-27T09:26:39.770Z,6.10
2022-08-27T09:30:30.508Z,6.80
2022-08-27T09:33:58.345Z,6.35
2022-08-27T09:37:34.532Z,6.93
2022-08-27T09:41:09.787Z,6.85
2022-08-27T09:44:47.392Z,6.25
2022-08-27T09:48:21.403Z,6.70
2022-08-27T09:51:50.006Z,7.25
2022-08-27T09:55:34.946Z,7.10
2022-08-27T09:59:12.304Z,6.68
2022-08-27T10:02:53.859Z,6.47
2022-08-27T10:06:30.708Z,6.45
2022-08-27T10:14:13.392Z,7.13
2022-08-27T10:18:10.621Z,6.90
2022-08-27T10:21:47.180Z,6.93
2022-08-27T10:25:28.160Z,6.90
2022-08-27T10:29:08.691Z,7.63
2022-08-27T10:32:59.137Z,7.00
2022-08-27T10:36:43.639Z,6.78
2022-08-27T10:40:28.035Z,6.90
2022-08-27T10:44:11.920Z,7.63
2022-08-27T10:48:02.748Z,7.25
2022-08-27T10:51:52.999Z,6.75
2022-08-27T10:55:27.237Z,7.07
2022-08-27T10:59:01.381Z,7.28
2022-08-27T11:02:42.473Z,6.53
2022-08-27T11:06:36.600Z,6.05
2022-08-27T11:10:14.471Z,6.55
2022-08-27T11:13:49.515Z,6.68
2022-08-27T11:17:32.196Z,6.18
2022-08-27T11:21:01.989Z,6.07
2022-08-27T11:24:59.314Z,7.35
2022-08-27T11:32:09.224Z,7.40
2022-08-27T11:35:54.477Z,6.22
2022-08-27T11:39:49.763Z,6.30
2022-08-27T11:43:39.123Z,6.45
2022-08-27T11:47:20.087Z,6.57
2022-08-27T11:51:02.616Z,6.85
2022-08-27T11:54:32.109Z,7.40
2022-08-27T11:58:07.372Z,7.40
2022-08-27T12:01:35.042Z,6.45
2022-08-27T12:05:10.306Z,6.57
2022-08-27T12:08:38.238Z,7.57
2022-08-27T12:12:21.958Z,6.45
2022-08-27T12:16:20.466Z,5.90
2022-08-27T12:20:00.865Z,6.18
2022-08-27T12:23:59.485Z,5.95
2022-08-27T12:27:36.777Z,6.43
2022-08-27T12:31:25.694Z,6.30
2022-08-27T12:34:59.794Z,6.45
2022-08-27T12:38:51.032Z,6.85
2022-08-27T12:42:27.835Z,6.60
2022-08-27T12:46:03.975Z,6.32
2022-08-27T12:49:57.251Z,5.93
2022-08-27T12:53:25.907Z,5.80
2022-08-27T12:57:24.481Z,6.20
2022-08-27T13:01:25.070Z,6.03
2022-08-27T13:04:53.099Z,6.35
2022-08-27T13:08:33.639Z,6.10
2022-08-27T13:12:28.797Z,6.13
2022-08-27T13:16:04.961Z,6.43
2022-08-27T13:27:13.255Z,5.65
2022-08-27T13:30:42.439Z,7.10
2022-08-27T13:34:14.742Z,5.25
2022-08-27T13:38:02.502Z,5.47
2022-08-27T13:41:34.381Z,6.20
2022-08-27T13:45:26.536Z,5.80
2022-08-27T13:48:54.112Z,5.60
2022-08-27T13:52:29.542Z,6.25
2022-08-27T13:56:07.545Z,6.30
2022-08-27T13:59:39.005Z,5.82
2022-08-27T14:03:30.690Z,6.25
2022-08-27T14:06:56.610Z,5.90
2022-08-27T14:10:31.246Z,6.30
2022-08-27T14:13:59.794Z,5.53
2022-08-27T14:17:35.028Z,5.88
2022-08-27T14:21:02.266Z,5.60
2022-08-27T14:24:31.709Z,5.22
2022-08-27T14:28:04.353Z,5.30
2022-08-27T14:31:31.389Z,6.15
2022-08-27T14:34:57.443Z,6.32
2022-08-27T14:38:24.096Z,5.70
2022-08-27T14:41:51.780Z,5.18
2022-08-27T14:45:17.895Z,5.35
2022-08-27T14:52:25.544Z,5.80
2022-08-27T14:55:52.194Z,5.93
2022-08-27T14:59:18.578Z,5.53
2022-08-27T15:02:48.193Z,5.75
2022-08-27T15:06:19.826Z,6.18
2022-08-27T15:09:48.848Z,6.63
2022-08-27T15:13:14.812Z,5.85
2022-08-27T15:16:42.781Z,6.07
2022-08-27T15:20:13.677Z,5.60
2022-08-27T15:23:48.749Z,5.95
2022-08-27T15:27:15.742Z,6.30
2022-08-27T15:30:42.529Z,7.15
2022-08-27T15:34:08.562Z,6.65
2022-08-27T15:37:34.694Z,6.82
2022-08-27T15:41:00.804Z,6.55
2022-08-27T15:44:26.665Z,7.25
2022-08-27T15:47:52.610Z,7.00
2022-08-27T15:51:21.983Z,7.10
2022-08-27T15:54:50.928Z,7.07
2022-08-27T15:58:17.686Z,7.47
2022-08-27T16:05:10.583Z,7.30
2022-08-27T16:12:07.818Z,7.28
2022-08-27T16:15:34.435Z,8.13
2022-08-27T16:19:02.000Z,7.15
2022-08-27T16:22:28.898Z,6.63
2022-08-27T16:29:21.359Z,7.63
2022-08-27T16:32:52.419Z,6.00
2022-08-27T16:36:19.766Z,7.40
2022-08-27T16:39:45.966Z,7.32
2022-08-27T16:43:14.742Z,7.35
2022-08-27T16:46:43.248Z,7.55
2022-08-27T16:50:27.542Z,7.70
2022-08-27T16:53:53.675Z,7.82
2022-08-27T16:57:20.104Z,6.97
2022-08-27T17:00:59.348Z,7.75
2022-08-27T17:04:31.351Z,7.50
2022-08-27T17:11:34.546Z,8.85
2022-08-27T17:15:01.707Z,8.15
2022-08-27T17:18:28.020Z,8.50
2022-08-27T17:21:55.454Z,8.23
2022-08-27T17:25:21.433Z,9.10
2022-08-27T17:28:56.421Z,9.25
2022-08-27T17:32:24.078Z,9.68
2022-08-27T17:35:53.425Z,9.98
2022-08-27T17:39:23.232Z,9.70
2022-08-27T17:42:50.296Z,8.93
2022-08-27T17:49:42.605Z,9.32
2022-08-27T17:53:13.797Z,9.10
2022-08-27T17:56:44.145Z,10.35
2022-08-27T18:00:12.001Z,10.13
2022-08-27T18:03:47.605Z,9.82
2022-08-27T18:07:15.624Z,9.93
2022-08-27T18:10:42.282Z,9.65
2022-08-27T18:14:09.697Z,10.77
2022-08-27T18:17:36.454Z,9.95
2022-08-27T18:21:04.280Z,10.85
2022-08-27T18:24:33.673Z,9.35
2022-08-27T18:28:01.563Z,9.10
2022-08-27T18:31:29.682Z,9.95
2022-08-27T18:35:04.443Z,9.82
2022-08-27T18:38:30.467Z,9.10
2022-08-27T18:41:56.779Z,8.63
2022-08-27T18:45:24.981Z,9.13
2022-08-27T18:48:52.373Z,10.68
2022-08-27T18:52:20.472Z,9.57
2022-08-27T18:55:47.634Z,9.52
2022-08-27T18:59:15.795Z,9.52
2022-08-27T19:02:43.282Z,10.05
2022-08-27T19:06:11.018Z,9.90
2022-08-27T19:09:38.364Z,9.55
2022-08-27T19:13:04.514Z,11.70
2022-08-27T19:16:50.918Z,12.45
2022-08-27T19:20:18.946Z,11.60
2022-08-27T19:23:45.589Z,12.38
2022-08-27T19:27:24.721Z,11.82
2022-08-27T19:30:51.444Z,11.50
2022-08-27T19:34:17.534Z,11.25
2022-08-27T19:37:45.148Z,11.70
2022-08-27T19:41:19.151Z,11.88
2022-08-27T19:44:45.750Z,12.45
2022-08-27T19:48:14.489Z,12.32
2022-08-27T19:51:40.381Z,11.20
2022-08-27T19:55:14.515Z,11.63
2022-08-27T19:58:42.316Z,12.68
2022-08-27T20:02:10.510Z,12.75
2022-08-27T20:05:36.501Z,12.68
2022-08-27T20:09:08.086Z,12.65
2022-08-27T20:12:34.065Z,13.02
2022-08-27T20:16:00.208Z,12.20
2022-08-27T20:19:26.365Z,12.33
2022-08-27T20:22:52.930Z,10.95
2022-08-27T20:26:19.050Z,12.23
2022-08-27T20:29:45.005Z,11.73
2022-08-27T20:33:10.986Z,11.70
2022-08-27T20:36:39.075Z,12.68
2022-08-27T20:40:06.895Z,11.48
2022-08-27T20:43:33.309Z,11.75
2022-08-27T20:47:01.933Z,10.35
2022-08-27T20:50:28.009Z,11.25
2022-08-27T20:53:53.971Z,11.02
2022-08-27T20:57:20.002Z,10.50
2022-08-27T21:00:45.945Z,10.60
2022-08-27T21:04:13.048Z,11.48
2022-08-27T21:07:39.533Z,11.18
2022-08-27T21:11:12.983Z,9.98
2022-08-27T21:14:39.666Z,10.85
2022-08-27T21:18:05.761Z,9.88
2022-08-27T21:21:31.905Z,9.48
2022-08-27T21:24:57.820Z,9.90
2022-08-27T21:28:23.767Z,10.05
2022-08-27T21:31:51.873Z,8.90
2022-08-27T21:35:17.900Z,9.93
2022-08-27T21:38:43.942Z,10.50
2022-08-27T21:42:11.050Z,11.70
2022-08-27T21:45:39.445Z,10.73
2022-08-27T21:49:05.310Z,11.65
2022-08-27T21:52:31.224Z,11.18
2022-08-27T21:55:57.146Z,11.60
2022-08-27T21:59:23.021Z,11.45
2022-08-27T22:02:50.697Z,11.57
2022-08-27T22:06:17.057Z,9.10
2022-08-27T22:09:43.057Z,8.67
2022-08-27T22:13:11.070Z,9.65
2022-08-27T22:16:37.140Z,8.27
2022-08-27T22:20:04.474Z,9.18
2022-08-27T22:23:32.512Z,8.85
2022-08-27T22:26:58.897Z,9.45
2022-08-27T22:30:25.216Z,7.77
2022-08-27T22:33:51.519Z,9.10
2022-08-27T22:37:17.391Z,8.20
2022-08-27T22:40:44.595Z,9.63
2022-08-27T22:47:36.981Z,9.10
2022-08-27T22:51:03.833Z,8.57
2022-08-27T22:54:29.763Z,9.10
2022-08-27T22:57:55.900Z,9.07
2022-08-27T23:01:28.127Z,9.00
2022-08-27T23:04:55.722Z,8.10
2022-08-27T23:08:23.348Z,8.75
2022-08-27T23:15:16.869Z,7.93
2022-08-27T23:18:43.018Z,8.43
2022-08-27T23:22:09.881Z,8.77
2022-08-27T23:25:54.653Z,7.78
2022-08-27T23:29:22.786Z,9.10
2022-08-27T23:32:52.695Z,8.30
2022-08-27T23:36:20.609Z,8.45
2022-08-27T23:39:46.564Z,8.05
2022-08-27T23:43:12.420Z,8.68
2022-08-27T23:46:38.560Z,8.70
2022-08-27T23:50:05.119Z,8.57
2022-08-27T23:53:31.059Z,8.65
2022-08-27T23:56:56.986Z,8.02
